Time;durP1;ratioP1;P1;durP2;ratioP2;P2;SDS_P1;SDS_P2;PMS_P1;PMS_P2;Temp;Humidity;BMP_temperature;BMP_pressure;BME280_temperature;BME280_humidity;BME280_pressure;Samples;Min_cycle;Max_cycle;Signal;HPM_P1;HPM_P2
2023/03/20 00:01:13;;;;;;;12.40;3.15;;;9.20;99.90;;;;;;5053550;28;20125;-63
2023/03/20 00:03:40;;;;;;;12.63;3.65;;;9.20;99.90;;;;;;5053346;28;20069;-63
2023/03/20 00:06:06;;;;;;;12.65;3.22;;;9.10;99.90;;;;;;5053138;28;20047;-63
2023/03/20 00:08:33;;;;;;;13.40;3.38;;;9.10;99.90;;;;;;5053279;28;20102;-63
2023/03/20 00:11:00;;;;;;;16.05;3.60;;;9.00;99.90;;;;;;5053449;28;20071;-63
2023/03/20 00:13:27;;;;;;;12.90;3.42;;;9.00;99.90;;;;;;5053090;28;20049;-63
2023/03/20 00:15:54;;;;;;;11.02;3.17;;;9.00;99.90;;;;;;5052122;28;20455;-63
2023/03/20 00:18:21;;;;;;;12.65;3.58;;;9.00;99.90;;;;;;5053286;28;20056;-62
2023/03/20 00:20:48;;;;;;;13.73;3.85;;;9.00;99.90;;;;;;5053070;28;20045;-63
2023/03/20 00:23:15;;;;;;;11.55;3.58;;;8.90;99.90;;;;;;5052715;28;20049;-63
2023/03/20 00:25:42;;;;;;;10.07;2.95;;;8.90;99.90;;;;;;5052910;28;20041;-63
2023/03/20 00:28:08;;;;;;;9.80;3.63;;;8.90;99.90;;;;;;5052359;28;20560;-63
2023/03/20 00:30:35;;;;;;;11.85;3.40;;;8.90;99.90;;;;;;5053386;28;20056;-63
2023/03/20 00:33:02;;;;;;;12.45;3.97;;;8.90;99.90;;;;;;5050536;28;20045;-62
2023/03/20 00:35:29;;;;;;;11.55;2.88;;;8.90;99.90;;;;;;5050051;28;20037;-63
2023/03/20 00:37:56;;;;;;;17.23;3.47;;;8.90;99.90;;;;;;5052519;28;20045;-63
2023/03/20 00:40:23;;;;;;;10.77;3.15;;;8.90;99.90;;;;;;5055677;28;20064;-64
2023/03/20 00:42:50;;;;;;;13.55;3.60;;;8.90;99.90;;;;;;5054124;28;20044;-63
2023/03/20 00:45:16;;;;;;;14.52;3.70;;;8.90;99.90;;;;;;5055278;28;20069;-63
2023/03/20 00:47:44;;;;;;;13.18;2.83;;;8.90;99.90;;;;;;5056153;28;20095;-63
2023/03/20 00:50:11;;;;;;;16.38;3.40;;;8.80;99.90;;;;;;5056822;28;20430;-63
2023/03/20 00:52:38;;;;;;;17.30;3.88;;;8.80;99.90;;;;;;5056295;28;20067;-63
2023/03/20 00:55:05;;;;;;;15.65;3.90;;;8.80;99.90;;;;;;5056929;28;20132;-62
2023/03/20 00:57:32;;;;;;;18.15;4.05;;;8.80;99.90;;;;;;5056984;28;20160;-63
2023/03/20 00:59:59;;;;;;;11.75;3.65;;;8.80;99.90;;;;;;5056272;28;20472;-63
2023/03/20 01:02:27;;;;;;;10.88;3.22;;;8.80;99.90;;;;;;5056763;28;20384;-63
2023/03/20 01:04:54;;;;;;;10.27;3.40;;;8.80;99.90;;;;;;5055378;28;20048;-63
2023/03/20 01:07:21;;;;;;;11.95;3.63;;;8.80;99.90;;;;;;5056691;28;20480;-63
2023/03/20 01:09:48;;;;;;;17.00;3.92;;;8.80;99.90;;;;;;5056803;28;20045;-63
2023/03/20 01:12:15;;;;;;;15.48;3.45;;;8.80;99.90;;;;;;5054296;28;20047;-63
2023/03/20 01:14:42;;;;;;;16.27;3.80;;;8.90;99.90;;;;;;5032311;28;20037;-63
2023/03/20 01:17:09;;;;;;;15.48;3.78;;;8.90;99.90;;;;;;5024743;28;20113;-62
2023/03/20 01:19:39;;;;;;;14.00;3.60;;;8.90;99.90;;;;;;5016139;28;20129;-63
2023/03/20 01:22:06;;;;;;;14.68;3.33;;;8.90;99.90;;;;;;5024819;28;20045;-63
2023/03/20 01:24:33;;;;;;;13.45;3.00;;;8.90;99.90;;;;;;5016366;28;20045;-62
2023/03/20 01:27:02;;;;;;;12.98;3.75;;;8.90;99.90;;;;;;5014814;28;20092;-63
2023/03/20 01:29:29;;;;;;;16.50;3.85;;;8.90;99.90;;;;;;5014723;28;20037;-63
2023/03/20 01:31:56;;;;;;;12.38;3.10;;;8.90;99.90;;;;;;5014977;28;20042;-63
2023/03/20 01:34:26;;;;;;;11.85;3.00;;;8.90;99.90;;;;;;5014679;28;20046;-63
2023/03/20 01:36:55;;;;;;;15.88;3.47;;;8.90;99.90;;;;;;5015206;28;20152;-63
2023/03/20 01:39:23;;;;;;;14.82;3.47;;;8.90;99.90;;;;;;5015191;28;20061;-63
2023/03/20 01:41:50;;;;;;;13.63;3.20;;;8.90;99.90;;;;;;5015246;28;20045;-63
2023/03/20 01:44:17;;;;;;;15.30;3.10;;;8.90;99.90;;;;;;5014743;28;20425;-63
2023/03/20 01:46:45;;;;;;;10.68;3.22;;;8.90;99.90;;;;;;5014790;28;20096;-62
2023/03/20 01:49:17;;;;;;;10.95;2.85;;;8.90;99.90;;;;;;5014164;28;20048;-63
2023/03/20 01:51:45;;;;;;;12.52;3.05;;;8.90;99.90;;;;;;5015031;28;20050;-63
2023/03/20 01:54:12;;;;;;;13.43;3.47;;;8.90;99.90;;;;;;5014592;28;20104;-63
2023/03/20 01:56:52;;;;;;;18.33;4.50;;;9.00;99.90;;;;;;5015113;28;20038;-63
2023/03/20 01:59:19;;;;;;;15.27;3.40;;;9.00;99.90;;;;;;5014927;28;20439;-63
2023/03/20 02:01:46;;;;;;;12.20;3.33;;;8.90;99.90;;;;;;5014436;28;20034;-63
2023/03/20 02:04:19;;;;;;;13.30;3.13;;;9.00;99.90;;;;;;5014198;28;20042;-63
2023/03/20 02:06:54;;;;;;;11.98;3.60;;;8.90;99.90;;;;;;5014266;28;20054;-63
2023/03/20 02:09:39;;;;;;;16.08;3.50;;;9.00;99.90;;;;;;5014525;28;20050;-63
2023/03/20 02:12:11;;;;;;;14.57;3.28;;;8.90;99.90;;;;;;5014201;28;20440;-63
2023/03/20 02:14:39;;;;;;;11.48;3.00;;;8.90;99.90;;;;;;5014430;28;20045;-63
2023/03/20 02:17:17;;;;;;;15.10;3.00;;;9.00;99.90;;;;;;5014426;28;20042;-63
2023/03/20 02:19:55;;;;;;;15.13;3.83;;;9.00;99.90;;;;;;5014044;28;20130;-63
2023/03/20 02:22:22;;;;;;;15.40;3.45;;;9.00;99.90;;;;;;5014347;28;20481;-63
2023/03/20 02:24:49;;;;;;;15.77;3.15;;;9.00;99.90;;;;;;5014992;28;20081;-63
2023/03/20 02:27:16;;;;;;;8.98;2.67;;;9.00;99.90;;;;;;5014366;28;20048;-63
2023/03/20 02:29:44;;;;;;;15.82;3.75;;;9.00;99.90;;;;;;5013958;28;20060;-63
2023/03/20 02:32:11;;;;;;;15.43;3.15;;;9.00;99.90;;;;;;5014919;28;20042;-63
2023/03/20 02:34:38;;;;;;;19.05;3.53;;;9.00;99.90;;;;;;5013489;28;20134;-63
2023/03/20 02:37:05;;;;;;;15.02;3.50;;;9.00;99.90;;;;;;5013522;28;20041;-63
2023/03/20 02:39:33;;;;;;;19.10;3.95;;;9.00;99.90;;;;;;5013795;28;20038;-63
2023/03/20 02:42:00;;;;;;;13.02;3.17;;;8.90;99.90;;;;;;5013575;28;20048;-63
2023/03/20 02:44:27;;;;;;;16.25;3.10;;;8.90;99.90;;;;;;5013279;28;20489;-63
2023/03/20 02:46:59;;;;;;;13.27;3.10;;;8.90;99.90;;;;;;5013691;28;20045;-63
2023/03/20 02:49:26;;;;;;;13.40;2.90;;;8.90;99.90;;;;;;5013253;28;20485;-63
2023/03/20 02:51:53;;;;;;;18.98;3.13;;;8.90;99.90;;;;;;5014647;28;20100;-63
2023/03/20 02:54:20;;;;;;;15.32;3.35;;;8.90;99.90;;;;;;5013054;28;20108;-63
2023/03/20 02:56:51;;;;;;;17.77;3.67;;;8.80;99.90;;;;;;5013325;28;20052;-63
2023/03/20 02:59:18;;;;;;;15.63;3.15;;;8.80;99.90;;;;;;5014593;28;20060;-62
2023/03/20 03:01:45;;;;;;;13.32;3.10;;;8.80;99.90;;;;;;5012656;28;20371;-62
2023/03/20 03:04:12;;;;;;;12.18;2.83;;;8.70;99.90;;;;;;5013449;28;20046;-63
2023/03/20 03:06:39;;;;;;;17.33;3.00;;;8.70;99.90;;;;;;5013681;28;20084;-63
2023/03/20 03:09:11;;;;;;;12.70;3.15;;;8.70;99.90;;;;;;5013129;28;20042;-63
2023/03/20 03:11:39;;;;;;;18.23;3.60;;;8.70;99.90;;;;;;5012937;28;20061;-62
2023/03/20 03:14:06;;;;;;;14.52;3.22;;;8.70;99.90;;;;;;5014530;28;20054;-63
2023/03/20 03:16:33;;;;;;;20.42;4.25;;;8.80;99.90;;;;;;5013030;28;20052;-63
2023/03/20 03:19:00;;;;;;;17.77;3.72;;;8.80;99.90;;;;;;4996731;28;20096;-63
2023/03/20 03:21:28;;;;;;;15.73;3.33;;;8.80;99.90;;;;;;5012968;28;20065;-63
2023/03/20 03:23:55;;;;;;;15.30;3.45;;;8.80;99.90;;;;;;5012570;28;20054;-63
2023/03/20 03:26:23;;;;;;;15.10;2.80;;;8.80;99.90;;;;;;5012764;28;20046;-63
2023/03/20 03:28:53;;;;;;;16.08;2.95;;;8.80;99.90;;;;;;5012745;28;20104;-63
2023/03/20 03:31:20;;;;;;;19.35;3.75;;;8.80;99.90;;;;;;5013112;28;20134;-63
2023/03/20 03:33:47;;;;;;;17.10;3.47;;;8.80;99.90;;;;;;5014322;28;20104;-63
2023/03/20 03:36:15;;;;;;;12.63;2.90;;;8.90;99.90;;;;;;5014368;28;20117;-63
2023/03/20 03:38:43;;;;;;;23.27;4.50;;;8.90;99.90;;;;;;5012486;28;20037;-63
2023/03/20 03:41:10;;;;;;;13.60;3.05;;;8.90;99.90;;;;;;5013130;28;20042;-63
2023/03/20 03:43:37;;;;;;;14.48;3.25;;;8.90;99.90;;;;;;5012352;28;20574;-63
2023/03/20 03:46:04;;;;;;;17.10;3.92;;;8.90;99.90;;;;;;5012496;28;20060;-63
2023/03/20 03:48:31;;;;;;;14.70;3.88;;;8.90;99.90;;;;;;5012926;28;20046;-63
2023/03/20 03:50:58;;;;;;;16.27;3.53;;;8.90;99.90;;;;;;5012730;28;20425;-62
2023/03/20 03:53:25;;;;;;;14.45;3.35;;;8.90;99.90;;;;;;4996268;28;20049;-63
2023/03/20 03:55:52;;;;;;;13.30;3.10;;;8.90;99.90;;;;;;5012483;28;20045;-63
2023/03/20 03:58:19;;;;;;;16.05;3.13;;;9.00;99.90;;;;;;4996559;28;20046;-63
2023/03/20 04:00:46;;;;;;;21.30;3.30;;;9.00;99.90;;;;;;5012878;28;20049;-63
2023/03/20 04:03:13;;;;;;;13.70;2.60;;;9.00;99.90;;;;;;5012095;28;20038;-63
2023/03/20 04:05:40;;;;;;;17.73;3.55;;;9.00;99.90;;;;;;5012077;28;20141;-63
2023/03/20 04:08:07;;;;;;;13.00;2.55;;;9.00;99.90;;;;;;5012688;28;20096;-63
2023/03/20 04:10:34;;;;;;;12.75;3.00;;;9.00;99.90;;;;;;5013468;28;20115;-64
2023/03/20 04:13:00;;;;;;;15.82;2.92;;;9.00;99.90;;;;;;5013559;28;20042;-64
2023/03/20 04:15:27;;;;;;;13.35;2.92;;;9.00;99.90;;;;;;5013278;28;20073;-64
2023/03/20 04:17:54;;;;;;;14.88;3.10;;;9.00;99.90;;;;;;4995973;28;20050;-63
2023/03/20 04:20:21;;;;;;;16.10;3.05;;;9.00;99.90;;;;;;5013199;28;20065;-62
2023/03/20 04:22:48;;;;;;;15.88;3.25;;;9.00;99.90;;;;;;5011554;28;20046;-61
2023/03/20 04:25:16;;;;;;;13.00;3.17;;;9.00;99.90;;;;;;5012366;28;20104;-62
2023/03/20 04:27:43;;;;;;;16.17;2.88;;;9.10;99.90;;;;;;5011869;28;20050;-62
2023/03/20 04:30:17;;;;;;;17.35;2.80;;;9.10;99.90;;;;;;5012489;28;20210;-63
2023/03/20 04:33:02;;;;;;;17.57;3.50;;;9.10;99.90;;;;;;5013984;28;20057;-62
2023/03/20 04:35:52;;;;;;;15.95;2.92;;;9.10;99.90;;;;;;5030328;28;20100;-62
2023/03/20 04:38:19;;;;;;;19.10;3.15;;;9.00;99.90;;;;;;5011943;28;20057;-63
2023/03/20 04:40:47;;;;;;;17.65;3.10;;;9.00;99.90;;;;;;5012438;28;20382;-63
2023/03/20 04:43:13;;;;;;;16.10;3.53;;;9.00;99.90;;;;;;5012231;28;20060;-63
2023/03/20 04:45:40;;;;;;;13.07;3.00;;;9.00;99.90;;;;;;5012434;28;20049;-63
2023/03/20 04:48:08;;;;;;;17.55;3.25;;;9.00;99.90;;;;;;5011701;28;20077;-63
2023/03/20 04:50:36;;;;;;;15.63;3.15;;;9.00;99.90;;;;;;5012170;28;20046;-63
2023/03/20 04:53:03;;;;;;;14.52;3.17;;;9.00;99.90;;;;;;5011894;28;20100;-64
2023/03/20 04:55:30;;;;;;;15.60;2.85;;;9.00;99.90;;;;;;5012983;28;20129;-63
2023/03/20 04:57:58;;;;;;;16.00;2.75;;;9.00;99.90;;;;;;5011631;28;20069;-63
2023/03/20 05:00:26;;;;;;;15.00;2.90;;;9.00;99.90;;;;;;5011785;28;20042;-63
2023/03/20 05:02:52;;;;;;;15.73;3.00;;;9.00;99.90;;;;;;5011804;28;20050;-63
2023/03/20 05:05:19;;;;;;;14.27;3.00;;;9.00;99.90;;;;;;5011528;28;20050;-63
2023/03/20 05:07:47;;;;;;;14.05;2.97;;;9.00;99.90;;;;;;5011881;28;20044;-63
2023/03/20 05:10:21;;;;;;;16.35;3.30;;;9.00;99.90;;;;;;5011563;28;20041;-63
2023/03/20 05:12:56;;;;;;;16.90;3.75;;;9.00;99.90;;;;;;5011693;28;20045;-63
2023/03/20 05:15:51;;;;;;;16.88;3.30;;;9.00;99.90;;;;;;5011609;28;20046;-63
2023/03/20 05:18:37;;;;;;;14.40;3.22;;;9.00;99.90;;;;;;5011739;28;20060;-63
2023/03/20 05:21:35;;;;;;;12.95;2.58;;;9.00;99.90;;;;;;5033161;28;20073;-62
2023/03/20 05:24:28;;;;;;;16.63;3.20;;;9.10;99.90;;;;;;5012691;28;20050;-62
2023/03/20 05:27:25;;;;;;;14.27;2.83;;;9.10;99.90;;;;;;5014835;28;20041;-63
2023/03/20 05:30:15;;;;;;;12.98;2.60;;;9.10;99.90;;;;;;5023545;28;20053;-63
2023/03/20 05:32:55;;;;;;;18.15;3.33;;;9.10;99.90;;;;;;5014741;28;20057;-63
2023/03/20 05:35:25;;;;;;;19.65;3.35;;;9.10;99.90;;;;;;5016400;28;20116;-62
2023/03/20 05:37:57;;;;;;;21.17;3.40;;;9.10;99.90;;;;;;5016362;28;20070;-62
2023/03/20 05:40:34;;;;;;;15.65;3.40;;;9.10;99.90;;;;;;5014737;28;20053;-62
2023/03/20 05:43:10;;;;;;;16.23;3.13;;;9.10;99.90;;;;;;5016426;28;20048;-62
2023/03/20 05:45:52;;;;;;;17.67;3.35;;;9.10;99.90;;;;;;5014862;28;20049;-62
2023/03/20 05:48:38;;;;;;;19.80;4.40;;;9.10;99.90;;;;;;5016094;28;20080;-62
2023/03/20 05:51:27;;;;;;;14.88;3.60;;;9.10;99.90;;;;;;5014505;28;20060;-62
2023/03/20 05:54:04;;;;;;;16.02;3.35;;;9.10;99.90;;;;;;5014686;28;20050;-62
2023/03/20 05:56:47;;;;;;;15.75;3.15;;;9.10;99.90;;;;;;5014327;28;20100;-62
2023/03/20 05:59:25;;;;;;;13.68;3.38;;;9.10;99.90;;;;;;5014554;28;20056;-62
2023/03/20 06:02:11;;;;;;;18.17;3.50;;;9.10;99.90;;;;;;5015935;28;20128;-63
2023/03/20 06:04:42;;;;;;;23.63;4.13;;;9.20;99.90;;;;;;5014247;28;20549;-63
2023/03/20 06:07:26;;;;;;;15.65;3.35;;;9.20;99.90;;;;;;5014431;28;20050;-63
2023/03/20 06:10:02;;;;;;;23.60;3.33;;;9.20;99.90;;;;;;5014479;28;20052;-63
2023/03/20 06:12:30;;;;;;;24.02;4.28;;;9.20;99.90;;;;;;5014076;28;20054;-63
2023/03/20 06:14:57;;;;;;;24.30;4.10;;;9.20;99.90;;;;;;5014244;28;20045;-63
2023/03/20 06:17:24;;;;;;;26.50;3.97;;;9.20;99.90;;;;;;5014051;28;20042;-64
2023/03/20 06:19:58;;;;;;;19.55;3.85;;;9.20;99.90;;;;;;5013967;28;20066;-62
2023/03/20 06:22:24;;;;;;;23.02;4.50;;;9.20;99.90;;;;;;5014322;28;20041;-63
2023/03/20 06:24:51;;;;;;;22.50;3.92;;;9.30;99.90;;;;;;5015583;28;20050;-62
2023/03/20 06:27:22;;;;;;;20.52;3.60;;;9.30;99.90;;;;;;5014553;28;20042;-62
2023/03/20 06:29:49;;;;;;;17.02;3.88;;;9.30;99.90;;;;;;5013687;28;20045;-62
2023/03/20 06:32:24;;;;;;;18.80;3.90;;;9.30;99.90;;;;;;5013965;28;20053;-63
2023/03/20 06:34:54;;;;;;;22.52;4.07;;;9.40;99.90;;;;;;5013592;28;20054;-63
2023/03/20 06:37:20;;;;;;;18.65;3.75;;;9.40;99.90;;;;;;5015232;28;20470;-62
2023/03/20 06:39:47;;;;;;;18.65;3.90;;;9.40;99.90;;;;;;5013609;28;20135;-63
2023/03/20 06:42:15;;;;;;;21.17;5.47;;;9.40;99.90;;;;;;5014182;28;20096;-63
2023/03/20 06:44:44;;;;;;;20.35;4.72;;;9.40;99.90;;;;;;5013883;28;20050;-63
2023/03/20 06:47:14;;;;;;;18.15;3.63;;;9.40;99.90;;;;;;5014042;28;20046;-62
2023/03/20 06:49:41;;;;;;;21.17;3.95;;;9.40;99.90;;;;;;5015477;28;20050;-63
2023/03/20 06:52:11;;;;;;;26.90;4.80;;;9.40;99.90;;;;;;5015210;28;20037;-62
2023/03/20 06:54:38;;;;;;;22.05;4.70;;;9.40;99.90;;;;;;5013395;28;20373;-62
2023/03/20 06:57:05;;;;;;;25.67;4.53;;;9.40;99.90;;;;;;5013237;28;20453;-63
2023/03/20 06:59:32;;;;;;;19.02;3.88;;;9.50;99.90;;;;;;5015052;28;20478;-63
2023/03/20 07:02:00;;;;;;;29.05;4.70;;;9.50;99.90;;;;;;5013722;28;20493;-62
2023/03/20 07:04:27;;;;;;;18.80;3.85;;;9.50;99.90;;;;;;5013470;28;20042;-63
2023/03/20 07:06:57;;;;;;;23.30;4.93;;;9.60;99.90;;;;;;5013869;28;20049;-62
2023/03/20 07:09:25;;;;;;;20.17;3.67;;;9.60;99.90;;;;;;5013239;28;20049;-63
2023/03/20 07:11:53;;;;;;;20.67;4.85;;;9.60;99.90;;;;;;5013682;28;20050;-63
2023/03/20 07:14:21;;;;;;;25.10;4.65;;;9.70;99.90;;;;;;5013493;28;20050;-63
2023/03/20 07:16:55;;;;;;;22.23;4.70;;;9.60;99.90;;;;;;5013498;28;20045;-63
2023/03/20 07:19:22;;;;;;;21.35;4.25;;;9.70;99.90;;;;;;5013636;28;20061;-62
2023/03/20 07:21:53;;;;;;;16.90;4.85;;;9.70;99.90;;;;;;5031682;28;20492;-62
2023/03/20 07:24:20;;;;;;;17.38;3.85;;;9.70;99.90;;;;;;5031051;28;20053;-62
2023/03/20 07:26:47;;;;;;;19.23;4.28;;;9.80;99.90;;;;;;5031439;28;20086;-62
2023/03/20 07:29:15;;;;;;;18.63;3.55;;;9.80;99.90;;;;;;5031613;28;20046;-62
2023/03/20 07:31:42;;;;;;;13.55;3.70;;;9.80;99.90;;;;;;5030726;28;20069;-62
2023/03/20 07:34:20;;;;;;;17.90;3.92;;;9.90;99.90;;;;;;5030858;28;20056;-61
2023/03/20 07:36:48;;;;;;;15.73;3.50;;;9.90;99.90;;;;;;5031068;28;20041;-62
2023/03/20 07:39:19;;;;;;;16.10;3.63;;;9.90;99.90;;;;;;5030258;28;20052;-62
2023/03/20 07:41:57;;;;;;;15.32;3.13;;;9.90;99.90;;;;;;5030392;28;20044;-62
2023/03/20 07:44:36;;;;;;;11.10;2.97;;;10.00;99.90;;;;;;5030415;28;20042;-62
2023/03/20 07:47:08;;;;;;;16.35;4.05;;;10.00;99.90;;;;;;5030643;28;20517;-62
2023/03/20 07:49:35;;;;;;;16.48;3.33;;;10.10;99.90;;;;;;5032314;28;20041;-63
2023/03/20 07:52:02;;;;;;;13.27;3.35;;;10.10;99.90;;;;;;5030847;28;20103;-63
2023/03/20 07:54:29;;;;;;;15.50;3.55;;;10.10;99.90;;;;;;5030786;28;20057;-63
2023/03/20 07:56:56;;;;;;;12.73;3.70;;;10.20;99.90;;;;;;5031938;28;20036;-63
2023/03/20 07:59:23;;;;;;;11.68;3.60;;;10.20;99.90;;;;;;5033642;28;20033;-63
2023/03/20 08:01:51;;;;;;;9.82;3.63;;;10.20;99.90;;;;;;5033811;28;20107;-62
2023/03/20 08:04:21;;;;;;;17.30;4.13;;;10.30;99.90;;;;;;5033165;28;20045;-62
2023/03/20 08:06:48;;;;;;;15.07;3.60;;;10.30;99.90;;;;;;5033768;28;20046;-62
2023/03/20 08:09:15;;;;;;;14.27;3.22;;;10.40;99.90;;;;;;5033465;28;20045;-61
2023/03/20 08:11:41;;;;;;;42.08;28.63;;;10.40;99.90;;;;;;5033210;28;20132;-61
2023/03/20 08:14:08;;;;;;;12.25;4.15;;;10.50;99.90;;;;;;5033513;28;20480;-62
2023/03/20 08:16:35;;;;;;;12.15;3.85;;;10.50;99.90;;;;;;5033071;28;20038;-62
2023/03/20 08:19:04;;;;;;;12.68;4.10;;;10.60;99.90;;;;;;5033590;28;20042;-62
2023/03/20 08:21:30;;;;;;;19.55;7.57;;;10.60;99.90;;;;;;5033649;28;20061;-62
2023/03/20 08:23:57;;;;;;;12.93;4.18;;;10.60;99.90;;;;;;5033035;28;20485;-62
2023/03/20 08:26:24;;;;;;;14.23;4.00;;;10.60;99.90;;;;;;5033119;28;20045;-62
2023/03/20 08:28:51;;;;;;;15.98;4.55;;;10.60;99.90;;;;;;5033661;28;20038;-62
2023/03/20 08:31:18;;;;;;;13.27;4.43;;;10.70;99.90;;;;;;5033517;28;20100;-62
2023/03/20 08:33:45;;;;;;;13.98;4.18;;;10.70;99.90;;;;;;5032851;28;20048;-62
2023/03/20 08:36:14;;;;;;;12.10;4.35;;;10.70;99.90;;;;;;5032944;28;20038;-62
2023/03/20 08:38:41;;;;;;;12.80;4.13;;;10.80;99.90;;;;;;5033580;28;20037;-62
2023/03/20 08:41:09;;;;;;;13.40;3.92;;;10.80;99.90;;;;;;5033000;28;20041;-62
2023/03/20 08:43:35;;;;;;;11.57;3.90;;;10.80;99.90;;;;;;5031709;28;20116;-62
2023/03/20 08:46:02;;;;;;;14.57;4.18;;;10.80;99.90;;;;;;5032898;28;20038;-62
2023/03/20 08:48:29;;;;;;;13.25;4.22;;;10.90;99.90;;;;;;5031904;28;20440;-62
2023/03/20 08:50:56;;;;;;;9.88;3.55;;;10.90;99.90;;;;;;5033402;28;20037;-62
2023/03/20 08:53:23;;;;;;;14.68;4.47;;;11.00;99.90;;;;;;5033313;28;20077;-62
2023/03/20 08:55:49;;;;;;;8.88;3.75;;;11.10;99.90;;;;;;5032865;28;20046;-62
2023/03/20 08:58:16;;;;;;;9.73;3.08;;;11.20;99.90;;;;;;5032167;28;20042;-62
2023/03/20 09:00:43;;;;;;;9.32;4.20;;;11.30;99.90;;;;;;5036418;28;20392;-62
2023/03/20 09:03:10;;;;;;;10.73;3.35;;;11.30;99.90;;;;;;5037175;28;20099;-62
2023/03/20 09:05:37;;;;;;;6.70;2.67;;;11.30;99.90;;;;;;5035878;28;20379;-62
2023/03/20 09:08:04;;;;;;;7.18;2.33;;;11.40;99.90;;;;;;5036911;28;20156;-62
2023/03/20 09:10:31;;;;;;;8.13;2.67;;;11.40;99.90;;;;;;5035361;28;20496;-62
2023/03/20 09:12:58;;;;;;;6.18;1.90;;;11.40;99.90;;;;;;5036737;28;20091;-62
2023/03/20 09:15:25;;;;;;;6.75;2.28;;;11.50;99.90;;;;;;5036824;28;20049;-62
2023/03/20 09:17:51;;;;;;;8.05;2.03;;;11.60;99.90;;;;;;5035502;28;20512;-62
2023/03/20 09:20:18;;;;;;;7.45;2.17;;;11.60;99.90;;;;;;5036424;28;20033;-62
2023/03/20 09:22:45;;;;;;;9.18;2.03;;;11.60;99.90;;;;;;5036344;28;20124;-62
2023/03/20 09:25:12;;;;;;;5.45;2.00;;;11.60;99.90;;;;;;5034740;28;20056;-62
2023/03/20 09:27:38;;;;;;;41.13;4.28;;;11.70;99.90;;;;;;5036863;28;20547;-62
2023/03/20 09:30:06;;;;;;;9.30;3.03;;;11.70;99.90;;;;;;5036800;28;20048;-61
2023/03/20 09:32:33;;;;;;;5.38;2.10;;;11.70;99.90;;;;;;5036278;28;20069;-61
2023/03/20 09:35:00;;;;;;;4.40;1.83;;;11.70;99.90;;;;;;5036613;28;20057;-63
2023/03/20 09:37:27;;;;;;;5.53;2.05;;;11.80;99.90;;;;;;5036023;28;20042;-62
2023/03/20 09:39:54;;;;;;;4.22;1.63;;;11.90;99.90;;;;;;5035243;28;20469;-62
2023/03/20 09:42:20;;;;;;;10.45;3.47;;;12.00;99.90;;;;;;5036238;28;20128;-62
2023/03/20 09:44:47;;;;;;;6.30;1.90;;;12.10;99.90;;;;;;5035798;28;20041;-62
2023/03/20 09:47:14;;;;;;;5.95;1.88;;;12.20;99.90;;;;;;5036207;28;20352;-61
2023/03/20 09:49:48;;;;;;;3.53;1.90;;;12.20;99.90;;;;;;5035948;28;20128;-62
2023/03/20 09:52:15;;;;;;;6.10;2.03;;;12.20;99.90;;;;;;5035898;28;20365;-63
2023/03/20 09:54:41;;;;;;;6.22;1.70;;;12.20;99.90;;;;;;5035931;28;20095;-62
2023/03/20 09:57:20;;;;;;;3.67;1.75;;;12.20;99.90;;;;;;5036084;28;20072;-63
2023/03/20 09:59:47;;;;;;;9.38;2.20;;;12.20;99.90;;;;;;5035898;28;20038;-62
2023/03/20 10:02:14;;;;;;;5.25;1.90;;;12.20;99.90;;;;;;5035521;28;20115;-63
2023/03/20 10:04:41;;;;;;;5.80;2.08;;;12.20;99.90;;;;;;5035302;28;20128;-63
2023/03/20 10:07:08;;;;;;;6.03;1.95;;;12.30;99.90;;;;;;5035574;28;20128;-62
2023/03/20 10:09:35;;;;;;;6.32;2.10;;;12.30;99.90;;;;;;5035391;28;20064;-62
2023/03/20 10:12:03;;;;;;;5.72;1.70;;;12.40;99.90;;;;;;5035618;28;20120;-62
2023/03/20 10:14:29;;;;;;;8.93;1.70;;;12.50;99.90;;;;;;5035183;28;20049;-62
2023/03/20 10:16:56;;;;;;;6.50;1.80;;;12.60;99.90;;;;;;5035271;28;20041;-62
2023/03/20 10:19:23;;;;;;;6.50;1.88;;;12.80;99.90;;;;;;5035632;28;20045;-62
2023/03/20 10:21:50;;;;;;;5.40;1.48;;;12.90;99.90;;;;;;5035427;28;20041;-63
2023/03/20 10:24:18;;;;;;;5.00;1.90;;;13.00;99.90;;;;;;5034833;28;20050;-62
2023/03/20 10:26:45;;;;;;;5.57;1.50;;;13.20;99.90;;;;;;5035890;28;20045;-62
2023/03/20 10:29:12;;;;;;;3.75;1.58;;;13.30;99.90;;;;;;5035303;28;20041;-63
2023/03/20 10:31:39;;;;;;;6.07;1.33;;;13.30;99.90;;;;;;5035074;28;20084;-62
2023/03/20 10:34:05;;;;;;;3.50;1.63;;;13.30;99.90;;;;;;5035190;28;20171;-62
2023/03/20 10:36:34;;;;;;;3.42;1.30;;;13.20;99.90;;;;;;5035283;28;20041;-62
2023/03/20 10:39:01;;;;;;;3.50;1.67;;;13.20;99.90;;;;;;5034848;28;20061;-63
2023/03/20 10:41:28;;;;;;;3.78;1.20;;;13.20;99.90;;;;;;5034757;28;20044;-63
2023/03/20 10:43:55;;;;;;;3.55;1.75;;;13.30;99.90;;;;;;5034936;28;20037;-62
2023/03/20 10:46:22;;;;;;;4.28;1.38;;;13.30;99.90;;;;;;5035069;28;20033;-62
2023/03/20 10:48:49;;;;;;;3.13;1.30;;;13.30;99.90;;;;;;5034848;28;20041;-62
2023/03/20 10:51:16;;;;;;;3.75;1.30;;;13.30;99.90;;;;;;5033734;28;20041;-62
2023/03/20 10:53:43;;;;;;;2.90;1.35;;;13.20;99.90;;;;;;5034372;28;20046;-62
2023/03/20 10:56:10;;;;;;;5.05;1.75;;;13.00;99.90;;;;;;5034995;28;20425;-62
2023/03/20 10:58:37;;;;;;;2.88;1.50;;;12.90;99.90;;;;;;5034454;28;20062;-62
2023/03/20 11:01:04;;;;;;;4.85;1.60;;;12.80;99.90;;;;;;5033519;28;20121;-62
2023/03/20 11:03:31;;;;;;;6.65;1.65;;;12.80;99.90;;;;;;5034633;28;20041;-63
2023/03/20 11:05:58;;;;;;;4.53;1.30;;;12.80;99.90;;;;;;5034418;28;20107;-62
2023/03/20 11:08:35;;;;;;;3.42;1.73;;;12.80;99.90;;;;;;5034555;28;20045;-63
2023/03/20 11:11:02;;;;;;;4.00;1.50;;;12.80;99.90;;;;;;5034625;28;20049;-62
2023/03/20 11:13:29;;;;;;;4.30;1.08;;;12.80;99.90;;;;;;5032931;28;20045;-62
2023/03/20 11:15:56;;;;;;;4.05;1.40;;;12.80;99.90;;;;;;5034650;28;20045;-63
2023/03/20 11:18:24;;;;;;;4.00;1.30;;;12.80;99.90;;;;;;5034184;28;20042;-62
2023/03/20 11:20:51;;;;;;;3.78;1.15;;;12.80;99.90;;;;;;5033758;28;20040;-63
2023/03/20 11:23:18;;;;;;;4.65;1.30;;;12.70;99.90;;;;;;5033020;28;20081;-62
2023/03/20 11:25:45;;;;;;;1.95;0.90;;;12.70;99.90;;;;;;5034205;28;20045;-62
2023/03/20 11:28:12;;;;;;;2.33;0.90;;;12.70;99.90;;;;;;5034035;28;20095;-62
2023/03/20 11:30:40;;;;;;;4.07;1.20;;;12.80;99.90;;;;;;5034134;28;20076;-63
2023/03/20 11:33:23;;;;;;;5.65;1.10;;;12.70;99.90;;;;;;5033952;28;20160;-62
2023/03/20 11:35:50;;;;;;;3.33;1.23;;;12.70;99.90;;;;;;5034286;28;20041;-63
2023/03/20 11:38:17;;;;;;;3.75;0.98;;;12.70;99.90;;;;;;5033640;28;20061;-62
2023/03/20 11:40:44;;;;;;;3.53;1.33;;;12.80;99.90;;;;;;5033887;28;20056;-63
2023/03/20 11:43:11;;;;;;;2.97;1.50;;;12.70;99.90;;;;;;5033903;28;20033;-62
2023/03/20 11:45:37;;;;;;;3.70;1.40;;;12.70;99.90;;;;;;5033706;28;20080;-62
2023/03/20 11:48:04;;;;;;;2.17;1.20;;;12.70;99.90;;;;;;5034190;28;20065;-63
2023/03/20 11:50:31;;;;;;;2.42;1.20;;;12.70;99.90;;;;;;5034006;28;20106;-63
2023/03/20 11:52:58;;;;;;;4.25;1.65;;;12.70;99.90;;;;;;5033421;28;20037;-63
2023/03/20 11:55:25;;;;;;;3.53;1.60;;;12.70;99.90;;;;;;5033830;28;20041;-62
2023/03/20 11:57:51;;;;;;;3.30;1.65;;;12.70;99.90;;;;;;5033666;28;20368;-62
2023/03/20 12:00:18;;;;;;;4.97;1.60;;;12.80;99.90;;;;;;5033919;28;20120;-63
2023/03/20 12:02:45;;;;;;;3.67;1.58;;;12.80;99.90;;;;;;5033869;28;20041;-62
2023/03/20 12:05:12;;;;;;;4.78;1.83;;;12.80;99.90;;;;;;5033679;28;20539;-62
2023/03/20 12:07:43;;;;;;;2.97;1.40;;;12.90;99.90;;;;;;5033300;28;20065;-62
2023/03/20 12:10:10;;;;;;;3.65;1.80;;;12.80;99.90;;;;;;5033526;28;20491;-62
2023/03/20 12:12:37;;;;;;;3.53;1.75;;;12.90;99.90;;;;;;5033205;28;20049;-62
2023/03/20 12:15:03;;;;;;;5.78;1.70;;;12.90;99.90;;;;;;5032596;28;20092;-63
2023/03/20 12:17:30;;;;;;;3.90;1.83;;;12.90;99.90;;;;;;5033624;28;20099;-63
2023/03/20 12:19:57;;;;;;;3.50;1.80;;;12.90;99.90;;;;;;5033389;28;20064;-63
2023/03/20 12:22:23;;;;;;;4.90;2.10;;;12.80;99.90;;;;;;5033495;28;20044;-63
2023/03/20 12:24:50;;;;;;;4.85;2.05;;;12.80;99.90;;;;;;5033248;28;20132;-63
2023/03/20 12:27:17;;;;;;;3.88;2.00;;;12.70;99.90;;;;;;5033587;28;20090;-62
2023/03/20 12:29:44;;;;;;;4.65;2.13;;;12.80;99.90;;;;;;5033185;28;20117;-62
2023/03/20 12:32:10;;;;;;;4.75;2.20;;;12.80;99.90;;;;;;5033736;28;20385;-63
2023/03/20 12:34:37;;;;;;;5.57;2.22;;;12.80;99.90;;;;;;5037027;28;20037;-62
2023/03/20 12:37:04;;;;;;;4.20;2.08;;;12.90;99.90;;;;;;5037374;28;20099;-63
2023/03/20 12:39:33;;;;;;;6.53;2.50;;;12.90;99.90;;;;;;5037689;28;20073;-63
2023/03/20 12:42:01;;;;;;;4.88;2.70;;;12.90;99.90;;;;;;5037480;28;20477;-63
2023/03/20 12:44:27;;;;;;;10.70;4.28;;;12.90;99.90;;;;;;5036344;28;20065;-62
2023/03/20 12:46:54;;;;;;;6.38;2.85;;;12.90;99.90;;;;;;5037134;28;20049;-63
2023/03/20 12:49:21;;;;;;;6.03;3.28;;;12.80;99.90;;;;;;5037409;28;20099;-63
2023/03/20 12:51:48;;;;;;;11.75;3.13;;;12.70;99.90;;;;;;5037220;28;20079;-62
2023/03/20 12:54:15;;;;;;;11.30;3.92;;;12.60;99.90;;;;;;5036819;28;20041;-62